createdAt,value
2023-01-11T00:00:33.340Z,86.57
2023-01-11T00:03:01.493Z,84.13
2023-01-11T00:05:30.284Z,79.40
2023-01-11T00:08:00.499Z,78.77
2023-01-11T00:10:32.785Z,93.50
2023-01-11T00:13:06.236Z,91.70
2023-01-11T00:15:36.804Z,87.97
2023-01-11T00:18:04.569Z,83.37
2023-01-11T00:20:32.008Z,118.27
2023-01-11T00:23:01.789Z,153.00
2023-01-11T00:25:29.122Z,97.80
2023-01-11T00:27:57.483Z,101.93
2023-01-11T00:30:25.236Z,107.60
2023-01-11T00:32:56.940Z,100.67
2023-01-11T00:35:25.477Z,98.23
2023-01-11T00:37:53.740Z,98.37
2023-01-11T00:40:24.320Z,109.93
2023-01-11T00:43:12.984Z,138.90
2023-01-11T00:46:01.839Z,116.80
2023-01-11T00:48:29.765Z,107.23
2023-01-11T00:50:58.059Z,126.70
2023-01-11T00:53:25.448Z,114.53
2023-01-11T00:55:52.957Z,99.70
2023-01-11T00:58:20.371Z,119.10
2023-01-11T01:00:47.714Z,102.73
2023-01-11T01:03:15.092Z,97.77
2023-01-11T01:05:42.366Z,97.90
2023-01-11T01:08:12.095Z,103.33
2023-01-11T01:10:39.454Z,106.77
2023-01-11T01:13:25.296Z,115.17
2023-01-11T01:15:57.434Z,91.33
2023-01-11T01:18:25.125Z,130.10
2023-01-11T01:20:52.854Z,135.83
2023-01-11T01:23:21.658Z,121.63
2023-01-11T01:25:48.970Z,113.60
2023-01-11T01:28:16.842Z,131.67
2023-01-11T01:30:44.150Z,136.90
2023-01-11T01:33:11.451Z,118.43
2023-01-11T01:35:38.999Z,147.23
2023-01-11T01:38:06.847Z,125.93
2023-01-11T01:40:34.732Z,126.47
2023-01-11T01:43:02.036Z,124.73
2023-01-11T01:45:29.409Z,113.17
2023-01-11T01:47:59.010Z,102.33
2023-01-11T01:50:28.127Z,96.07
2023-01-11T01:52:58.777Z,104.07
2023-01-11T01:55:28.764Z,111.37
2023-01-11T01:57:57.230Z,99.57
2023-01-11T02:00:25.561Z,96.67
2023-01-11T02:02:53.328Z,102.40
2023-01-11T02:05:20.963Z,100.67
2023-01-11T02:07:48.611Z,96.93
2023-01-11T02:10:20.945Z,106.43
2023-01-11T02:13:05.516Z,95.70
2023-01-11T02:15:33.124Z,89.60
2023-01-11T02:18:00.460Z,89.80
2023-01-11T02:20:46.557Z,94.30
2023-01-11T02:23:16.807Z,91.20
2023-01-11T02:26:03.301Z,84.53
2023-01-11T02:28:34.764Z,80.30
2023-01-11T02:31:08.692Z,93.77
2023-01-11T02:33:54.869Z,90.40
2023-01-11T02:36:28.042Z,82.27
2023-01-11T02:39:14.208Z,84.30
2023-01-11T02:42:05.935Z,96.60
2023-01-11T02:44:57.608Z,94.33
2023-01-11T02:47:29.396Z,91.33
2023-01-11T02:50:23.338Z,86.60
2023-01-11T02:53:03.271Z,86.53
2023-01-11T02:55:35.567Z,97.67
2023-01-11T02:58:04.004Z,82.67
2023-01-11T03:00:31.902Z,80.83
2023-01-11T03:03:10.229Z,98.90
2023-01-11T03:05:40.906Z,73.53
2023-01-11T03:08:30.792Z,110.67
2023-01-11T03:10:58.783Z,86.20
2023-01-11T03:13:37.006Z,76.50
2023-01-11T03:16:13.245Z,86.93
2023-01-11T03:18:43.679Z,89.40
2023-01-11T03:21:25.974Z,90.87
2023-01-11T03:24:11.899Z,89.90
2023-01-11T03:26:54.185Z,92.47
2023-01-11T03:29:30.531Z,86.90
2023-01-11T03:32:16.496Z,82.83
2023-01-11T03:35:07.221Z,83.67
2023-01-11T03:37:46.892Z,85.73
2023-01-11T03:40:16.818Z,86.93
2023-01-11T03:43:04.823Z,87.77
2023-01-11T03:45:33.494Z,89.60
2023-01-11T03:48:02.125Z,87.17
2023-01-11T03:50:30.470Z,90.73
2023-01-11T03:52:59.902Z,89.53
2023-01-11T03:55:29.753Z,85.40
2023-01-11T03:57:58.513Z,79.00
2023-01-11T04:00:26.895Z,83.87
2023-01-11T04:02:54.247Z,84.00
2023-01-11T04:05:21.628Z,86.63
2023-01-11T04:07:48.945Z,83.43
2023-01-11T04:10:16.405Z,85.57
2023-01-11T04:12:46.473Z,81.37
2023-01-11T04:15:14.915Z,83.23
2023-01-11T04:17:42.696Z,83.13
2023-01-11T04:20:10.832Z,79.80
2023-01-11T04:22:38.158Z,79.37
2023-01-11T04:25:05.974Z,83.83
2023-01-11T04:27:33.382Z,86.70
2023-01-11T04:30:01.751Z,87.00
2023-01-11T04:32:29.051Z,81.90
2023-01-11T04:34:56.410Z,85.57
2023-01-11T04:37:23.860Z,87.30
2023-01-11T04:39:51.144Z,86.83
2023-01-11T04:42:18.515Z,81.60
2023-01-11T04:44:47.951Z,84.47
2023-01-11T04:47:16.443Z,83.50
2023-01-11T04:49:43.813Z,89.97
2023-01-11T04:52:11.964Z,79.10
2023-01-11T04:54:39.574Z,83.83
2023-01-11T04:57:07.325Z,79.53
2023-01-11T04:59:34.715Z,85.20
2023-01-11T05:02:02.137Z,80.03
2023-01-11T05:04:29.485Z,82.87
2023-01-11T05:06:56.894Z,80.17
2023-01-11T05:09:25.498Z,77.23
2023-01-11T05:11:52.899Z,78.70
2023-01-11T05:14:20.224Z,82.93
2023-01-11T05:16:47.862Z,73.70
2023-01-11T05:19:15.733Z,74.27
2023-01-11T05:21:43.535Z,68.20
2023-01-11T05:24:14.752Z,65.57
2023-01-11T05:26:43.320Z,64.23
2023-01-11T05:29:12.356Z,57.90
2023-01-11T05:31:42.077Z,59.07
2023-01-11T05:34:11.739Z,55.07
2023-01-11T05:36:39.253Z,50.70
2023-01-11T05:39:06.859Z,56.80
2023-01-11T05:41:34.299Z,53.60
2023-01-11T05:44:26.785Z,53.07
2023-01-11T05:46:56.618Z,58.07
2023-01-11T05:49:24.147Z,51.87
2023-01-11T05:51:52.046Z,50.90
2023-01-11T05:54:19.476Z,53.77
2023-01-11T05:56:46.988Z,47.80
2023-01-11T05:59:14.411Z,60.77
2023-01-11T06:01:41.951Z,47.17
2023-01-11T06:04:09.438Z,42.57
2023-01-11T06:06:37.279Z,58.43
2023-01-11T06:09:04.640Z,47.30
2023-01-11T06:11:32.919Z,47.97
2023-01-11T06:14:00.654Z,46.10
2023-01-11T06:16:28.017Z,45.43
2023-01-11T06:18:59.467Z,42.67
2023-01-11T06:21:27.281Z,45.77
2023-01-11T06:23:55.397Z,47.10
2023-01-11T06:26:23.366Z,50.70
2023-01-11T06:28:51.105Z,43.67
2023-01-11T06:31:18.945Z,42.20
2023-01-11T06:33:47.046Z,43.97
2023-01-11T06:36:15.094Z,47.13
2023-01-11T06:38:42.894Z,45.77
2023-01-11T06:41:11.212Z,45.73
2023-01-11T06:43:41.617Z,44.97
2023-01-11T06:46:13.972Z,44.27
2023-01-11T06:48:41.693Z,45.27
2023-01-11T06:51:11.956Z,42.47
2023-01-11T06:53:39.680Z,42.23
2023-01-11T06:56:07.244Z,46.10
2023-01-11T06:58:34.594Z,47.73
2023-01-11T07:01:02.106Z,40.33
2023-01-11T07:03:30.139Z,50.07
2023-01-11T07:06:00.116Z,43.37
2023-01-11T07:08:29.621Z,41.00
2023-01-11T07:10:57.256Z,44.10
2023-01-11T07:13:24.625Z,41.67
2023-01-11T07:15:54.230Z,41.60
2023-01-11T07:18:21.871Z,39.40
2023-01-11T07:20:49.263Z,42.53
2023-01-11T07:23:16.607Z,42.13
2023-01-11T07:25:44.863Z,41.10
2023-01-11T07:28:12.346Z,41.87
2023-01-11T07:30:56.866Z,42.70
2023-01-11T07:33:25.880Z,35.43
2023-01-11T07:35:54.864Z,43.63
2023-01-11T07:38:22.294Z,39.40
2023-01-11T07:40:49.677Z,43.37
2023-01-11T07:43:19.361Z,36.37
2023-01-11T07:45:51.098Z,40.90
2023-01-11T07:48:25.235Z,36.93
2023-01-11T07:50:53.208Z,34.87
2023-01-11T07:53:22.091Z,36.93
2023-01-11T07:55:49.461Z,39.17
2023-01-11T07:58:17.184Z,35.47
2023-01-11T08:00:46.371Z,36.37
2023-01-11T08:03:14.205Z,38.23
2023-01-11T08:05:41.735Z,37.53
2023-01-11T08:08:09.391Z,40.20
2023-01-11T08:10:41.946Z,34.33
2023-01-11T08:13:31.489Z,32.30
2023-01-11T08:16:01.937Z,34.60
2023-01-11T08:18:29.330Z,36.90
2023-01-11T08:20:56.718Z,37.10
2023-01-11T08:23:26.164Z,37.73
2023-01-11T08:25:57.571Z,42.03
2023-01-11T08:28:24.989Z,33.80
2023-01-11T08:30:52.490Z,38.57
2023-01-11T08:33:19.623Z,38.33
2023-01-11T08:35:46.974Z,38.17
2023-01-11T08:38:14.352Z,37.73
2023-01-11T08:40:41.814Z,34.13
2023-01-11T08:43:09.965Z,38.80
2023-01-11T08:45:38.603Z,33.47
2023-01-11T08:48:06.230Z,38.37
2023-01-11T08:50:33.545Z,37.57
2023-01-11T08:53:00.877Z,41.10
2023-01-11T08:55:30.994Z,38.33
2023-01-11T08:57:58.343Z,38.47
2023-01-11T09:00:25.736Z,38.97
2023-01-11T09:02:53.127Z,39.10
2023-01-11T09:05:21.011Z,37.13
2023-01-11T09:07:48.395Z,36.07
2023-01-11T09:10:18.947Z,36.83
2023-01-11T09:12:46.290Z,32.90
2023-01-11T09:15:14.041Z,31.83
2023-01-11T09:17:41.704Z,33.07
2023-01-11T09:20:13.196Z,36.80
2023-01-11T09:22:40.831Z,34.73
2023-01-11T09:25:08.652Z,38.63
2023-01-11T09:27:38.369Z,33.13
2023-01-11T09:30:06.031Z,33.47
2023-01-11T09:32:34.345Z,37.93
2023-01-11T09:35:05.293Z,36.83
2023-01-11T09:37:33.182Z,37.30
2023-01-11T09:40:01.615Z,34.73
2023-01-11T09:42:36.666Z,34.87
2023-01-11T09:45:05.421Z,36.37
2023-01-11T09:47:44.537Z,35.77
2023-01-11T09:50:21.871Z,40.77
2023-01-11T09:52:54.535Z,41.50
2023-01-11T09:55:28.129Z,40.03
2023-01-11T09:57:56.135Z,37.40
2023-01-11T10:00:28.641Z,37.50
2023-01-11T10:03:34.684Z,41.67
2023-01-11T10:06:06.818Z,39.03
2023-01-11T10:18:26.164Z,39.77
2023-01-11T10:18:28.494Z,39.37
2023-01-11T10:20:37.951Z,41.77
2023-01-11T10:23:09.742Z,43.83
2023-01-11T10:25:47.985Z,42.17
2023-01-11T10:28:23.141Z,43.47
2023-01-11T10:31:00.655Z,49.43
2023-01-11T10:33:50.875Z,44.73
2023-01-11T10:36:32.339Z,46.03
2023-01-11T10:39:56.240Z,43.07
2023-01-11T10:42:25.370Z,47.97
2023-01-11T10:45:03.166Z,43.33
2023-01-11T10:47:34.479Z,40.53
2023-01-11T10:50:06.499Z,43.57
2023-01-11T10:52:44.448Z,42.33
2023-01-11T10:55:14.091Z,41.67
2023-01-11T10:57:59.470Z,43.57
2023-01-11T11:00:36.327Z,43.70
2023-01-11T11:03:06.690Z,47.17
2023-01-11T11:05:41.270Z,37.30
2023-01-11T11:08:10.257Z,41.07
2023-01-11T11:10:46.454Z,43.67
2023-01-11T11:13:15.929Z,42.10
2023-01-11T11:15:53.866Z,41.53
2023-01-11T11:18:21.961Z,41.90
2023-01-11T11:20:49.580Z,37.90
2023-01-11T11:23:19.213Z,39.20
2023-01-11T11:25:55.089Z,39.53
2023-01-11T11:28:27.365Z,35.33
2023-01-11T11:30:56.335Z,42.03
2023-01-11T11:33:37.907Z,41.42
2023-01-11T11:36:08.963Z,45.10
2023-01-11T11:38:37.421Z,43.27
2023-01-11T11:41:09.004Z,37.03
2023-01-11T11:43:40.624Z,36.57
2023-01-11T11:46:20.500Z,43.53
2023-01-11T11:49:08.443Z,40.77
2023-01-11T11:51:36.093Z,39.20
2023-01-11T11:54:06.630Z,44.47
2023-01-11T11:56:35.254Z,51.03
2023-01-11T11:59:10.031Z,43.67
2023-01-11T12:01:39.970Z,48.03
2023-01-11T12:04:36.169Z,48.10
2023-01-11T12:07:06.561Z,39.27
2023-01-11T12:09:38.934Z,42.70
2023-01-11T12:12:10.699Z,44.73
2023-01-11T12:14:40.505Z,47.77
2023-01-11T12:17:26.178Z,43.20
2023-01-11T12:19:56.222Z,44.67
2023-01-11T12:22:25.386Z,39.20
2023-01-11T12:25:15.531Z,35.00
2023-01-11T12:27:50.969Z,36.70
2023-01-11T12:30:25.517Z,37.03
2023-01-11T12:33:11.374Z,33.80
2023-01-11T12:35:39.046Z,32.37
2023-01-11T12:38:29.211Z,29.97
2023-01-11T12:41:10.184Z,31.53
2023-01-11T12:43:38.762Z,34.90
2023-01-11T12:46:19.693Z,33.27
2023-01-11T12:48:54.090Z,36.93
2023-01-11T12:51:36.792Z,34.83
2023-01-11T12:54:19.417Z,35.07
2023-01-11T12:57:04.067Z,33.13
2023-01-11T12:59:44.189Z,32.43
2023-01-11T13:02:33.352Z,33.43
2023-01-11T13:05:13.858Z,30.87
2023-01-11T13:07:52.917Z,30.00
2023-01-11T13:10:41.732Z,29.83
2023-01-11T13:13:27.469Z,29.50
2023-01-11T13:16:24.052Z,32.97
2023-01-11T13:19:13.763Z,31.73
2023-01-11T13:21:53.256Z,32.40
2023-01-11T13:24:26.592Z,30.77
2023-01-11T13:27:00.652Z,33.63
2023-01-11T13:29:32.730Z,34.80
2023-01-11T13:32:04.193Z,33.97
2023-01-11T13:34:40.581Z,37.83
2023-01-11T13:37:13.968Z,36.07
2023-01-11T13:40:02.229Z,31.67
2023-01-11T13:42:39.919Z,32.53
2023-01-11T13:45:25.688Z,32.77
2023-01-11T13:47:58.791Z,36.23
2023-01-11T13:50:36.308Z,36.97
2023-01-11T13:53:06.261Z,36.10
2023-01-11T13:55:46.238Z,33.87
2023-01-11T13:58:29.087Z,33.67
2023-01-11T14:01:13.259Z,33.60
2023-01-11T14:03:49.081Z,34.97
2023-01-11T14:06:22.537Z,34.50
2023-01-11T14:09:11.017Z,33.43
2023-01-11T14:11:54.119Z,40.50
2023-01-11T14:14:40.093Z,33.47
2023-01-11T14:17:40.176Z,31.33
2023-01-11T14:20:17.225Z,32.17
2023-01-11T14:23:04.422Z,33.37
2023-01-11T14:25:33.774Z,34.93
2023-01-11T14:28:13.223Z,32.10
2023-01-11T14:30:59.283Z,32.57
2023-01-11T14:33:45.137Z,33.93
2023-01-11T14:36:31.130Z,35.87
2023-01-11T14:39:07.313Z,39.03
2023-01-11T14:41:34.748Z,33.70
2023-01-11T14:44:25.612Z,35.53
2023-01-11T14:47:08.787Z,34.90
2023-01-11T14:49:42.878Z,35.23
2023-01-11T14:52:17.536Z,37.67
2023-01-11T14:54:47.662Z,35.03
2023-01-11T14:57:50.600Z,36.20
2023-01-11T15:00:20.914Z,35.87
2023-01-11T15:02:52.133Z,38.53
2023-01-11T15:05:28.570Z,39.20
2023-01-11T15:08:25.449Z,34.63
2023-01-11T15:10:59.723Z,38.47
2023-01-11T15:13:45.178Z,36.17
2023-01-11T15:16:44.967Z,37.00
2023-01-11T15:19:26.991Z,37.80
2023-01-11T15:22:08.043Z,37.17
2023-01-11T15:24:46.860Z,34.40
2023-01-11T15:27:25.448Z,33.90
2023-01-11T15:29:56.907Z,38.53
2023-01-11T15:32:29.737Z,34.57
2023-01-11T15:35:17.286Z,39.17
2023-01-11T15:37:47.421Z,38.33
2023-01-11T15:40:19.546Z,38.40
2023-01-11T15:42:49.855Z,36.40
2023-01-11T15:45:24.778Z,36.30
2023-01-11T15:48:22.195Z,36.33
2023-01-11T15:51:11.002Z,36.73
2023-01-11T15:53:38.414Z,33.73
2023-01-11T15:56:12.155Z,36.93
2023-01-11T15:58:42.523Z,34.80
2023-01-11T16:01:34.141Z,33.33
2023-01-11T16:04:17.069Z,35.47
2023-01-11T16:06:48.213Z,35.77
2023-01-11T16:09:37.160Z,39.80
2023-01-11T16:12:20.064Z,33.67
2023-01-11T16:15:05.902Z,36.10
2023-01-11T16:17:34.653Z,32.93
2023-01-11T16:20:13.945Z,33.00
2023-01-11T16:22:44.921Z,34.43
2023-01-11T16:25:15.045Z,34.43
2023-01-11T16:27:44.501Z,36.70
2023-01-11T16:30:18.396Z,34.93
2023-01-11T16:32:45.794Z,33.80
2023-01-11T16:35:17.868Z,34.13
2023-01-11T16:37:46.628Z,35.50
2023-01-11T16:40:18.057Z,38.47
2023-01-11T16:42:57.141Z,36.97
2023-01-11T16:45:25.762Z,39.50
2023-01-11T16:48:06.868Z,38.53
2023-01-11T16:50:35.272Z,39.20
2023-01-11T16:53:06.851Z,40.43
2023-01-11T16:55:40.885Z,41.00
2023-01-11T16:58:21.741Z,42.57
2023-01-11T17:01:02.572Z,42.00
2023-01-11T17:03:31.242Z,40.77
2023-01-11T17:05:58.809Z,38.63
2023-01-11T17:08:29.384Z,42.33
2023-01-11T17:10:58.991Z,35.70
2023-01-11T17:13:54.820Z,39.50
2023-01-11T17:16:25.999Z,37.70
2023-01-11T17:18:54.639Z,34.97
2023-01-11T17:21:24.182Z,39.07
2023-01-11T17:23:53.662Z,36.30
2023-01-11T17:26:25.825Z,37.83
2023-01-11T17:28:57.806Z,39.20
2023-01-11T17:31:27.126Z,38.17
2023-01-11T17:34:13.373Z,38.13
2023-01-11T17:36:41.707Z,37.53
2023-01-11T17:39:12.680Z,36.97
2023-01-11T17:42:00.154Z,38.27
2023-01-11T17:44:46.133Z,34.60
2023-01-11T17:47:14.625Z,36.47
2023-01-11T17:49:43.313Z,33.47
2023-01-11T17:52:18.384Z,41.37
2023-01-11T17:54:45.891Z,40.97
2023-01-11T17:57:14.473Z,38.73
2023-01-11T17:59:44.548Z,39.47
2023-01-11T18:02:15.152Z,37.20
2023-01-11T18:04:44.242Z,36.63
2023-01-11T18:07:20.899Z,39.83
2023-01-11T18:09:50.545Z,36.40
2023-01-11T18:12:23.299Z,34.03
2023-01-11T18:14:50.700Z,37.97
2023-01-11T18:17:37.573Z,36.80
2023-01-11T18:20:25.364Z,36.73
2023-01-11T18:23:03.149Z,36.80
2023-01-11T18:25:34.664Z,35.20
2023-01-11T18:28:21.316Z,31.53
2023-01-11T18:30:54.908Z,34.57
2023-01-11T18:33:23.843Z,35.13
2023-01-11T18:35:54.930Z,33.87
2023-01-11T18:38:24.797Z,35.97
2023-01-11T18:40:54.713Z,37.47
2023-01-11T18:43:25.548Z,38.50
2023-01-11T18:45:54.044Z,36.53
2023-01-11T18:48:21.993Z,38.97
2023-01-11T18:50:52.184Z,35.57
2023-01-11T18:53:19.906Z,39.50
2023-01-11T18:55:47.587Z,39.00
2023-01-11T18:58:15.453Z,40.53
2023-01-11T19:00:43.297Z,38.43
2023-01-11T19:03:12.675Z,39.50
2023-01-11T19:05:41.825Z,38.57
2023-01-11T19:08:09.668Z,39.70
2023-01-11T19:10:43.553Z,39.43
2023-01-11T19:13:11.620Z,40.70
2023-01-11T19:15:41.853Z,39.97
2023-01-11T19:18:12.312Z,41.37
2023-01-11T19:20:41.101Z,36.50
2023-01-11T19:23:08.769Z,36.63
2023-01-11T19:25:36.574Z,32.50
2023-01-11T19:28:04.788Z,33.33
2023-01-11T19:30:32.237Z,34.17
2023-01-11T19:32:59.557Z,32.10
2023-01-11T19:35:26.900Z,30.43
2023-01-11T19:37:54.252Z,31.03
2023-01-11T19:40:21.635Z,30.60
2023-01-11T19:42:52.283Z,31.17
2023-01-11T19:45:19.614Z,31.93
2023-01-11T19:47:47.414Z,30.77
2023-01-11T19:50:16.958Z,33.57
2023-01-11T19:52:46.116Z,31.57
2023-01-11T19:55:13.457Z,32.13
2023-01-11T19:57:41.149Z,32.77
2023-01-11T20:00:09.109Z,34.03
2023-01-11T20:02:42.596Z,33.60
2023-01-11T20:05:10.273Z,32.57
2023-01-11T20:07:37.613Z,33.53
2023-01-11T20:10:05.140Z,37.73
2023-01-11T20:12:32.554Z,37.60
2023-01-11T20:15:01.336Z,39.27
2023-01-11T20:17:29.448Z,37.87
2023-01-11T20:19:56.787Z,35.27
2023-01-11T20:22:24.763Z,40.03
2023-01-11T20:24:52.965Z,37.17
2023-01-11T20:27:21.631Z,37.23
2023-01-11T20:29:49.218Z,38.37
2023-01-11T20:32:39.153Z,44.23
2023-01-11T20:35:11.562Z,41.73
2023-01-11T20:37:59.782Z,42.03
2023-01-11T20:40:27.220Z,45.47
2023-01-11T20:42:54.599Z,45.60
2023-01-11T20:45:21.965Z,45.80
2023-01-11T20:47:49.262Z,45.30
2023-01-11T20:50:16.695Z,48.57
2023-01-11T20:52:45.430Z,46.23
2023-01-11T20:55:13.320Z,44.73
2023-01-11T20:57:42.395Z,48.73
2023-01-11T21:00:12.928Z,48.23
2023-01-11T21:02:40.440Z,47.17
2023-01-11T21:05:09.418Z,51.63
2023-01-11T21:07:37.336Z,51.37
2023-01-11T21:10:06.822Z,47.93
2023-01-11T21:12:34.231Z,48.40
2023-01-11T21:15:01.815Z,48.57
2023-01-11T21:17:30.941Z,50.40
2023-01-11T21:19:58.238Z,53.67
2023-01-11T21:22:25.656Z,51.03
2023-01-11T21:24:53.088Z,52.57
2023-01-11T21:27:23.476Z,49.60
2023-01-11T21:29:51.783Z,57.13
2023-01-11T21:32:20.185Z,52.33
2023-01-11T21:34:47.677Z,53.60
2023-01-11T21:37:16.206Z,53.93
2023-01-11T21:39:44.536Z,53.07
2023-01-11T21:42:12.354Z,55.47
2023-01-11T21:44:44.972Z,55.40
2023-01-11T21:47:17.143Z,48.70
2023-01-11T21:49:45.028Z,53.67
2023-01-11T21:52:14.439Z,49.67
2023-01-11T21:54:42.159Z,55.43
2023-01-11T21:57:09.556Z,50.20
2023-01-11T21:59:37.008Z,50.53
2023-01-11T22:02:04.428Z,49.63
2023-01-11T22:04:32.346Z,51.77
2023-01-11T22:07:00.475Z,53.30
2023-01-11T22:09:37.962Z,50.67
2023-01-11T22:12:05.603Z,53.10
2023-01-11T22:14:33.309Z,52.23
2023-01-11T22:17:02.542Z,50.97
2023-01-11T22:19:31.988Z,51.50
2023-01-11T22:21:59.423Z,52.00
2023-01-11T22:24:27.556Z,55.80
2023-01-11T22:26:55.139Z,54.53
2023-01-11T22:29:23.491Z,50.57
2023-01-11T22:31:56.104Z,49.10
2023-01-11T22:34:24.459Z,52.73
2023-01-11T22:36:53.360Z,51.27
2023-01-11T22:39:24.348Z,50.93
2023-01-11T22:41:51.956Z,51.47
2023-01-11T22:44:19.920Z,51.57
2023-01-11T22:46:47.620Z,48.90
2023-01-11T22:49:15.391Z,52.70
2023-01-11T22:51:47.271Z,48.47
2023-01-11T22:54:16.748Z,49.27
2023-01-11T22:56:44.289Z,50.63
2023-01-11T22:59:11.883Z,49.03
2023-01-11T23:01:41.560Z,44.87
2023-01-11T23:04:11.643Z,49.50
2023-01-11T23:06:40.058Z,47.50
2023-01-11T23:09:09.381Z,53.27
2023-01-11T23:11:56.182Z,49.57
2023-01-11T23:14:29.083Z,49.80
2023-01-11T23:16:57.889Z,48.90
